Time;durP1;ratioP1;P1;durP2;ratioP2;P2;SDS_P1;SDS_P2;PMS_P1;PMS_P2;Temp;Humidity;BMP_temperature;BMP_pressure;BME280_temperature;BME280_humidity;BME280_pressure;Samples;Min_cycle;Max_cycle;Signal;HPM_P1;HPM_P2
2023/11/17 00:02:08;;;;;;;;;;;;;;;2.64;100.00;100209.09;5069063;28;20016;-55
2023/11/17 00:04:35;;;;;;;;;;;;;;;2.67;100.00;100215.06;5069795;28;19932;-54
2023/11/17 00:07:03;;;;;;;;;;;;;;;2.66;100.00;100217.72;5071014;28;20046;-52
2023/11/17 00:09:30;;;;;;;;;;;;;;;2.71;100.00;100216.66;5071073;28;20297;-51
2023/11/17 00:11:57;;;;;;;;;;;;;;;2.76;100.00;100213.91;5069304;28;20013;-54
2023/11/17 00:14:25;;;;;;;;;;;;;;;2.75;100.00;100220.84;5075695;28;20006;-53
2023/11/17 00:16:52;;;;;;;;;;;;;;;2.84;100.00;100222.28;5067832;28;19954;-52
2023/11/17 00:19:19;;;;;;;;;;;;;;;2.90;100.00;100231.63;5073963;28;19966;-55
2023/11/17 00:21:46;;;;;;;;;;;;;;;2.92;100.00;100230.66;5066367;28;20528;-52
2023/11/17 00:24:14;;;;;;;;;;;;;;;2.84;100.00;100235.28;5069726;28;19928;-57
2023/11/17 00:26:41;;;;;;;;;;;;;;;2.95;100.00;100227.13;5057957;28;19963;-57
2023/11/17 00:29:09;;;;;;;;;;;;;;;2.95;100.00;100240.13;5067194;28;20061;-55
2023/11/17 00:31:36;;;;;;;;;;;;;;;2.97;100.00;100236.59;5070625;28;19971;-56
2023/11/17 00:34:03;;;;;;;;;;;;;;;2.94;100.00;100226.28;5052968;28;19981;-53
2023/11/17 00:36:31;;;;;;;;;;;;;;;2.99;100.00;100226.97;5051582;28;19967;-52
2023/11/17 00:38:58;;;;;;;;;;;;;;;3.01;100.00;100230.34;5050133;28;19970;-55
2023/11/17 00:41:25;;;;;;;;;;;;;;;3.05;100.00;100233.69;5069908;28;19971;-52
2023/11/17 00:43:57;;;;;;;;;;;;;;;2.90;99.47;100240.28;5066986;28;19963;-54
2023/11/17 00:46:24;;;;;;;;;;;;;;;2.91;100.00;100231.56;5083648;28;20499;-54
2023/11/17 00:48:51;;;;;;;;;;;;;;;2.96;100.00;100224.47;5072736;28;20348;-56
2023/11/17 00:51:18;;;;;;;;;;;;;;;2.99;100.00;100221.75;5072324;28;20421;-55
2023/11/17 00:53:46;;;;;;;;;;;;;;;3.02;100.00;100231.22;5066448;28;20358;-55
2023/11/17 00:56:14;;;;;;;;;;;;;;;2.98;99.75;100240.88;5077561;28;19975;-53
2023/11/17 00:58:41;;;;;;;;;;;;;;;3.04;99.84;100238.06;5074961;28;19999;-57
2023/11/17 01:01:08;;;;;;;;;;;;;;;3.07;99.89;100236.28;5077699;28;20008;-53
2023/11/17 01:03:36;;;;;;;;;;;;;;;3.09;99.45;100248.28;5077946;28;19971;-53
2023/11/17 01:06:04;;;;;;;;;;;;;;;3.10;99.81;100247.38;5074062;28;19960;-58
2023/11/17 01:08:30;;;;;;;;;;;;;;;3.00;99.25;100244.25;5053909;28;20015;-54
2023/11/17 01:10:57;;;;;;;;;;;;;;;3.11;100.00;100250.84;5072902;28;20046;-54
2023/11/17 01:13:24;;;;;;;;;;;;;;;3.12;99.25;100252.56;5076836;28;19928;-56
2023/11/17 01:15:51;;;;;;;;;;;;;;;3.10;99.03;100246.53;5071881;28;19924;-53
2023/11/17 01:18:18;;;;;;;;;;;;;;;3.20;99.46;100256.59;5072547;28;19960;-54
2023/11/17 01:20:45;;;;;;;;;;;;;;;3.14;98.85;100248.13;5075788;28;19968;-55
2023/11/17 01:23:13;;;;;;;;;;;;;;;3.17;97.60;100251.50;5073253;28;20373;-55
2023/11/17 01:25:40;;;;;;;;;;;;;;;3.20;97.85;100259.19;5050670;28;19997;-54
2023/11/17 01:28:07;;;;;;;;;;;;;;;3.24;97.66;100258.19;5075583;28;20486;-55
2023/11/17 01:30:34;;;;;;;;;;;;;;;3.24;97.23;100258.19;5075462;28;19928;-56
2023/11/17 01:33:01;;;;;;;;;;;;;;;3.12;97.61;100252.56;5072584;28;19972;-55
2023/11/17 01:35:28;;;;;;;;;;;;;;;3.17;98.45;100258.44;5070732;28;20312;-57
2023/11/17 01:37:55;;;;;;;;;;;;;;;3.16;98.29;100259.34;5072669;28;19928;-53
2023/11/17 01:40:22;;;;;;;;;;;;;;;3.27;98.54;100263.28;5054583;28;19970;-55
2023/11/17 01:42:49;;;;;;;;;;;;;;;3.28;97.94;100264.97;5071467;28;20406;-55
2023/11/17 01:45:16;;;;;;;;;;;;;;;3.25;97.33;100265.09;5071907;28;19967;-57
2023/11/17 01:47:43;;;;;;;;;;;;;;;3.23;97.68;100266.88;5056095;28;19935;-55
2023/11/17 01:50:11;;;;;;;;;;;;;;;3.25;97.85;100264.25;5054508;28;20031;-55
2023/11/17 01:52:40;;;;;;;;;;;;;;;3.21;97.65;100268.69;5082237;28;19924;-56
2023/11/17 01:55:08;;;;;;;;;;;;;;;3.20;97.86;100267.00;5068708;28;19968;-54
2023/11/17 01:57:37;;;;;;;;;;;;;;;3.20;98.20;100269.59;5074993;28;19932;-53
2023/11/17 02:00:06;;;;;;;;;;;;;;;3.24;98.55;100273.81;5069091;28;20020;-52
2023/11/17 02:02:34;;;;;;;;;;;;;;;3.23;97.61;100272.09;5069478;28;19924;-57
2023/11/17 02:05:01;;;;;;;;;;;;;;;3.28;97.98;100274.53;5085435;28;19925;-55
2023/11/17 02:07:34;;;;;;;;;;;;;;;3.18;97.53;100274.00;5051878;28;20015;-56
2023/11/17 02:10:06;;;;;;;;;;;;;;;3.13;98.17;100272.47;5070089;28;19955;-54
2023/11/17 02:12:35;;;;;;;;;;;;;;;3.12;99.30;100288.97;5064304;28;20003;-53
2023/11/17 02:15:09;;;;;;;;;;;;;;;3.16;98.80;100274.97;5071194;28;20055;-55
2023/11/17 02:17:37;;;;;;;;;;;;;;;3.18;98.65;100281.78;5069822;28;20033;-58
2023/11/17 02:20:11;;;;;;;;;;;;;;;3.05;99.26;100276.16;5054401;28;19960;-56
2023/11/17 02:22:47;;;;;;;;;;;;;;;3.16;99.47;100275.81;5083748;28;20008;-53
2023/11/17 02:25:21;;;;;;;;;;;;;;;2.99;100.00;100276.38;5067914;28;19924;-51
2023/11/17 02:27:59;;;;;;;;;;;;;;;3.05;100.00;100276.16;5056608;28;20368;-53
2023/11/17 02:30:30;;;;;;;;;;;;;;;3.07;100.00;100281.31;5076692;28;19924;-58
2023/11/17 02:33:00;;;;;;;;;;;;;;;3.03;100.00;100285.78;5051032;28;20485;-55
2023/11/17 02:35:30;;;;;;;;;;;;;;;2.99;100.00;100278.13;5070800;28;20006;-53
2023/11/17 02:38:06;;;;;;;;;;;;;;;3.09;100.00;100286.47;5068051;28;20362;-53
2023/11/17 02:40:37;;;;;;;;;;;;;;;3.00;100.00;100283.25;5073550;28;19960;-54
2023/11/17 02:43:07;;;;;;;;;;;;;;;3.01;100.00;100295.34;5073641;28;20079;-55
2023/11/17 02:45:36;;;;;;;;;;;;;;;3.07;100.00;100283.06;5071108;28;19967;-55
2023/11/17 02:48:04;;;;;;;;;;;;;;;2.98;100.00;100279.88;5070571;28;19979;-55
2023/11/17 02:51:03;;;;;;;;;;;;;;;3.04;100.00;100284.03;5073018;28;19964;-54
2023/11/17 02:53:31;;;;;;;;;;;;;;;3.10;100.00;100290.75;5074761;28;19924;-53
2023/11/17 02:55:58;;;;;;;;;;;;;;;3.04;100.00;100284.03;5074622;28;19994;-53
2023/11/17 02:58:25;;;;;;;;;;;;;;;3.08;100.00;100289.97;5071888;28;19963;-51
2023/11/17 03:00:52;;;;;;;;;;;;;;;3.10;100.00;100293.34;5058315;28;20003;-54
2023/11/17 03:03:22;;;;;;;;;;;;;;;3.08;100.00;100295.16;5071683;28;20353;-55
2023/11/17 03:05:58;;;;;;;;;;;;;;;3.19;100.00;100293.03;5072232;28;19924;-53
2023/11/17 03:08:25;;;;;;;;;;;;;;;3.22;100.00;100290.34;5085204;28;19959;-54
2023/11/17 03:11:02;;;;;;;;;;;;;;;3.24;100.00;100304.16;5074243;28;19924;-55
2023/11/17 03:13:32;;;;;;;;;;;;;;;3.13;100.00;100299.31;5076353;28;20015;-57
2023/11/17 03:15:59;;;;;;;;;;;;;;;3.02;100.00;100296.25;5074854;28;19990;-50
2023/11/17 03:18:26;;;;;;;;;;;;;;;3.00;100.00;100311.88;5075321;28;19964;-54
2023/11/17 03:20:54;;;;;;;;;;;;;;;2.95;100.00;100311.16;5073957;28;20032;-58
2023/11/17 03:23:21;;;;;;;;;;;;;;;2.98;100.00;100321.47;5076148;28;19980;-54
2023/11/17 03:25:52;;;;;;;;;;;;;;;3.01;100.00;100297.97;5074353;28;20454;-57
2023/11/17 03:28:19;;;;;;;;;;;;;;;2.99;100.00;100315.38;5069483;28;19971;-56
2023/11/17 03:30:46;;;;;;;;;;;;;;;2.93;100.00;100315.59;5073167;28;19924;-51
2023/11/17 03:33:13;;;;;;;;;;;;;;;3.00;100.00;100322.28;5069870;28;19967;-53
2023/11/17 03:35:40;;;;;;;;;;;;;;;2.87;100.00;100320.13;5072443;28;19925;-54
2023/11/17 03:38:08;;;;;;;;;;;;;;;2.86;100.00;100327.06;5072064;28;19978;-56
2023/11/17 03:40:36;;;;;;;;;;;;;;;2.86;100.00;100326.22;5068943;28;20410;-52
2023/11/17 03:43:03;;;;;;;;;;;;;;;2.83;100.00;100326.31;5071402;28;19966;-56
2023/11/17 03:45:30;;;;;;;;;;;;;;;2.78;100.00;100329.06;5077735;28;20016;-54
2023/11/17 03:47:57;;;;;;;;;;;;;;;2.63;100.00;100326.94;5073977;28;20016;-56
2023/11/17 03:50:25;;;;;;;;;;;;;;;2.76;100.00;100328.28;5062449;28;19971;-58
2023/11/17 03:52:53;;;;;;;;;;;;;;;2.75;100.00;100329.19;5068596;28;20010;-55
2023/11/17 03:55:21;;;;;;;;;;;;;;;2.77;100.00;100335.16;5067179;28;20031;-53
2023/11/17 03:57:48;;;;;;;;;;;;;;;2.78;100.00;100334.25;5068581;28;19931;-53
2023/11/17 04:00:15;;;;;;;;;;;;;;;2.72;100.00;100329.25;5066722;28;19960;-57
2023/11/17 04:02:42;;;;;;;;;;;;;;;2.79;100.00;100338.53;5074162;28;20005;-54
2023/11/17 04:05:13;;;;;;;;;;;;;;;2.78;100.00;100334.25;5064131;28;20358;-55
2023/11/17 04:07:42;;;;;;;;;;;;;;;2.64;100.00;100339.03;5067372;28;19960;-58
2023/11/17 04:10:10;;;;;;;;;;;;;;;2.64;100.00;100345.09;5069560;28;19975;-50
2023/11/17 04:12:37;;;;;;;;;;;;;;;2.66;100.00;100350.25;5073121;28;19968;-55
2023/11/17 04:15:06;;;;;;;;;;;;;;;2.71;100.00;100350.97;5052005;28;19924;-57
2023/11/17 04:17:37;;;;;;;;;;;;;;;2.65;100.00;100351.13;5071243;28;20061;-52
2023/11/17 04:20:04;;;;;;;;;;;;;;;2.65;100.00;100349.38;5074432;28;20019;-55
2023/11/17 04:22:31;;;;;;;;;;;;;;;2.70;100.00;100350.13;5070665;28;20020;-54
2023/11/17 04:24:58;;;;;;;;;;;;;;;2.73;100.00;100350.00;5074462;28;19956;-52
2023/11/17 04:27:25;;;;;;;;;;;;;;;2.72;100.00;100347.44;5070140;28;20003;-54
2023/11/17 04:29:53;;;;;;;;;;;;;;;2.76;100.00;100354.25;5073822;28;20327;-56
2023/11/17 04:32:20;;;;;;;;;;;;;;;2.78;100.00;100347.25;5053995;28;19924;-52
2023/11/17 04:34:49;;;;;;;;;;;;;;;2.75;100.00;100345.63;5073203;28;20448;-53
2023/11/17 04:37:16;;;;;;;;;;;;;;;2.79;100.00;100354.16;5051854;28;20057;-54
2023/11/17 04:39:43;;;;;;;;;;;;;;;2.73;100.00;100377.75;5075128;28;20056;-58
2023/11/17 04:42:10;;;;;;;;;;;;;;;2.74;100.00;100358.63;5070153;28;19955;-50
2023/11/17 04:44:37;;;;;;;;;;;;;;;2.80;100.00;100353.28;5071064;28;20378;-56
2023/11/17 04:47:05;;;;;;;;;;;;;;;2.82;100.00;100363.63;5074048;28;19967;-57
2023/11/17 04:49:32;;;;;;;;;;;;;;;2.77;100.00;100372.41;5075947;28;19956;-53
2023/11/17 04:51:59;;;;;;;;;;;;;;;2.78;100.00;100366.28;5078408;28;19932;-56
2023/11/17 04:54:29;;;;;;;;;;;;;;;2.71;100.00;100370.00;5063393;28;19972;-56
2023/11/17 04:56:56;;;;;;;;;;;;;;;2.67;100.00;100368.38;5076508;28;20344;-54
2023/11/17 04:59:23;;;;;;;;;;;;;;;2.72;100.00;100374.28;5080470;28;19924;-52
2023/11/17 05:01:50;;;;;;;;;;;;;;;2.77;100.00;100371.56;5066014;28;19928;-58
2023/11/17 05:04:17;;;;;;;;;;;;;;;2.80;100.00;100374.06;5082950;28;20376;-53
2023/11/17 05:06:44;;;;;;;;;;;;;;;2.83;100.00;100399.94;5079255;28;20406;-57
2023/11/17 05:09:12;;;;;;;;;;;;;;;2.79;100.00;100391.41;5061091;28;20008;-57
2023/11/17 05:11:39;;;;;;;;;;;;;;;2.75;100.00;100387.22;5081164;28;19932;-58
2023/11/17 05:14:06;;;;;;;;;;;;;;;2.62;100.00;100392.81;5080452;28;19974;-58
2023/11/17 05:16:37;;;;;;;;;;;;;;;2.60;100.00;100402.41;5079921;28;19967;-58
2023/11/17 05:19:05;;;;;;;;;;;;;;;2.60;100.00;100398.03;5094623;28;20017;-51
2023/11/17 05:21:34;;;;;;;;;;;;;;;2.61;100.00;100401.50;5064779;28;19947;-51
2023/11/17 05:24:02;;;;;;;;;;;;;;;2.66;100.00;100404.84;5078247;28;19971;-57
2023/11/17 05:26:30;;;;;;;;;;;;;;;2.73;100.00;100416.72;5074105;28;20024;-51
2023/11/17 05:28:57;;;;;;;;;;;;;;;2.61;100.00;100407.56;5071299;28;19991;-49
2023/11/17 05:31:26;;;;;;;;;;;;;;;2.53;100.00;100420.78;5073369;28;19986;-56
2023/11/17 05:33:53;;;;;;;;;;;;;;;2.60;100.00;100412.78;5057765;28;19974;-53
2023/11/17 05:36:21;;;;;;;;;;;;;;;2.56;100.00;100409.44;5072085;28;19933;-55
2023/11/17 05:38:48;;;;;;;;;;;;;;;2.60;100.00;100426.63;5075125;28;20442;-54
2023/11/17 05:41:17;;;;;;;;;;;;;;;2.61;100.00;100411.88;5079407;28;19967;-57
2023/11/17 05:43:47;;;;;;;;;;;;;;;2.70;100.00;100409.00;5072146;28;19977;-57
2023/11/17 05:46:14;;;;;;;;;;;;;;;2.66;100.00;100404.84;5077461;28;19959;-53
2023/11/17 05:48:41;;;;;;;;;;;;;;;2.70;100.00;100422.88;5074110;28;20008;-54
2023/11/17 05:51:09;;;;;;;;;;;;;;;2.66;100.00;100418.69;5077959;28;20472;-54
2023/11/17 05:53:37;;;;;;;;;;;;;;;2.69;100.00;100422.91;5069815;28;19971;-54
2023/11/17 05:56:07;;;;;;;;;;;;;;;2.68;100.00;100421.22;5080002;28;20386;-52
2023/11/17 05:58:35;;;;;;;;;;;;;;;2.75;100.00;100430.56;5084403;28;19931;-52
2023/11/17 06:01:02;;;;;;;;;;;;;;;2.75;100.00;100422.75;5049726;28;19974;-51
2023/11/17 06:03:30;;;;;;;;;;;;;;;2.76;100.00;100425.28;5078910;28;19924;-55
2023/11/17 06:05:57;;;;;;;;;;;;;;;2.66;100.00;100436.88;5077050;28;20398;-52
2023/11/17 06:08:24;;;;;;;;;;;;;;;2.71;100.00;100441.94;5071513;28;20019;-53
2023/11/17 06:10:51;;;;;;;;;;;;;;;2.80;100.00;100441.66;5076726;28;20306;-59
2023/11/17 06:13:18;;;;;;;;;;;;;;;2.86;100.00;100435.41;5079906;28;19928;-58
2023/11/17 06:15:46;;;;;;;;;;;;;;;2.90;100.00;100443.06;5077325;28;19975;-52
2023/11/17 06:18:14;;;;;;;;;;;;;;;2.86;100.00;100441.47;5063044;28;20399;-54
2023/11/17 06:20:42;;;;;;;;;;;;;;;2.75;100.00;100451.34;5084445;28;19967;-56
2023/11/17 06:23:09;;;;;;;;;;;;;;;2.75;100.00;100448.75;5042277;28;20454;-54
2023/11/17 06:25:36;;;;;;;;;;;;;;;2.71;100.00;100452.31;5055133;28;19924;-59
2023/11/17 06:28:04;;;;;;;;;;;;;;;2.80;100.00;100433.84;5056283;28;20340;-54
2023/11/17 06:30:30;;;;;;;;;;;;;;;2.80;100.00;100446.84;5049057;28;20024;-51
2023/11/17 06:32:57;;;;;;;;;;;;;;;2.82;100.00;100445.06;5075895;28;20034;-51
2023/11/17 06:35:24;;;;;;;;;;;;;;;2.79;100.00;100442.53;5075162;28;19924;-54
2023/11/17 06:37:52;;;;;;;;;;;;;;;2.87;100.00;100453.56;5067744;28;19967;-55
2023/11/17 06:40:19;;;;;;;;;;;;;;;2.89;100.00;100453.53;5081807;28;20028;-52
2023/11/17 06:42:46;;;;;;;;;;;;;;;2.88;100.00;100457.00;5080605;28;19963;-52
2023/11/17 06:45:13;;;;;;;;;;;;;;;2.86;100.00;100449.25;5072416;28;20475;-51
2023/11/17 06:47:42;;;;;;;;;;;;;;;2.78;100.00;100464.22;5073844;28;20028;-55
2023/11/17 06:50:11;;;;;;;;;;;;;;;2.87;100.00;100481.31;5074219;28;20015;-52
2023/11/17 06:52:38;;;;;;;;;;;;;;;2.82;100.00;100468.44;5073604;28;19959;-55
2023/11/17 06:55:06;;;;;;;;;;;;;;;2.88;100.00;100463.09;5050170;28;19924;-57
2023/11/17 06:57:33;;;;;;;;;;;;;;;2.86;100.00;100472.66;5066750;28;20039;-58
2023/11/17 07:00:00;;;;;;;;;;;;;;;2.82;100.00;100473.66;5056372;28;20861;-52
2023/11/17 07:02:30;;;;;;;;;;;;;;;2.73;100.00;100472.16;5025179;28;19990;-56
2023/11/17 07:04:58;;;;;;;;;;;;;;;2.85;100.00;100468.38;5036953;28;20500;-55
2023/11/17 07:07:25;;;;;;;;;;;;;;;2.87;100.00;100502.94;5041871;28;19950;-54
2023/11/17 07:09:52;;;;;;;;;;;;;;;2.90;100.00;100476.03;5077720;28;20434;-58
2023/11/17 07:12:19;;;;;;;;;;;;;;;2.91;100.00;100491.56;5071150;28;19924;-59
2023/11/17 07:14:48;;;;;;;;;;;;;;;2.85;100.00;100481.38;5075549;28;19924;-52
2023/11/17 07:17:15;;;;;;;;;;;;;;;2.97;100.00;100493.13;5078656;28;20395;-56
2023/11/17 07:19:45;;;;;;;;;;;;;;;3.04;100.00;100497.25;5075295;28;20684;-55
2023/11/17 07:22:12;;;;;;;;;;;;;;;3.01;100.00;100489.53;5074918;28;20031;-56
2023/11/17 07:24:39;;;;;;;;;;;;;;;3.01;100.00;100492.16;5081208;28;20512;-51
2023/11/17 07:27:07;;;;;;;;;;;;;;;3.03;100.00;100498.16;5056166;28;20023;-52
2023/11/17 07:29:36;;;;;;;;;;;;;;;3.12;100.00;100497.88;5071945;28;20046;-51
2023/11/17 07:32:04;;;;;;;;;;;;;;;3.17;100.00;100500.34;5078610;28;20449;-51
2023/11/17 07:34:31;;;;;;;;;;;;;;;3.21;100.00;100507.16;5072577;28;20011;-53
2023/11/17 07:36:58;;;;;;;;;;;;;;;3.18;100.00;100499.44;5072711;28;20070;-52
2023/11/17 07:39:25;;;;;;;;;;;;;;;3.28;100.00;100511.28;5076693;28;19924;-54
2023/11/17 07:41:53;;;;;;;;;;;;;;;3.22;100.00;100504.50;5075708;28;19959;-49
2023/11/17 07:44:21;;;;;;;;;;;;;;;3.20;100.00;100503.72;5067946;28;19968;-53
2023/11/17 07:46:48;;;;;;;;;;;;;;;3.20;100.00;100511.53;5076538;28;20144;-51
2023/11/17 07:49:17;;;;;;;;;;;;;;;3.09;100.00;100517.94;5108404;22;19935;-86
2023/11/17 07:51:48;;;;;;;;;;;;;;;3.20;100.00;100515.88;5041308;28;19944;-86
2023/11/17 07:54:16;;;;;;;;;;;;;;;3.17;100.00;100522.00;5064398;28;19928;-86
2023/11/17 07:56:46;;;;;;;;;;;;;;;3.16;100.00;100520.31;5075370;28;19923;-85
2023/11/17 07:59:14;;;;;;;;;;;;;;;3.13;100.00;100522.16;5054569;28;19935;-85
2023/11/17 08:01:44;;;;;;;;;;;;;;;3.14;100.00;100527.28;5035225;28;20016;-85
2023/11/17 08:04:11;;;;;;;;;;;;;;;3.21;100.00;100535.78;5020853;28;19925;-85
2023/11/17 08:06:39;;;;;;;;;;;;;;;3.25;100.00;100525.25;5037119;28;19952;-85
2023/11/17 08:09:10;;;;;;;;;;;;;;;3.31;100.00;100545.00;5045081;28;20008;-85
2023/11/17 08:11:38;;;;;;;;;;;;;;;3.23;100.00;100545.22;5023571;28;19939;-85
2023/11/17 08:14:07;;;;;;;;;;;;;;;3.24;100.00;100543.47;5037260;28;20035;-85
2023/11/17 08:16:36;;;;;;;;;;;;;;;3.25;100.00;100543.44;5054063;28;19929;-85
2023/11/17 08:19:08;;;;;;;;;;;;;;;3.37;100.00;100549.16;5023058;28;19964;-84
2023/11/17 08:21:54;;;;;;;;;;;;;;;3.33;100.00;100542.34;5068417;28;20000;-85
2023/11/17 08:24:23;;;;;;;;;;;;;;;3.35;100.00;100549.22;5010959;28;20482;-85
2023/11/17 08:26:50;;;;;;;;;;;;;;;3.38;100.00;100551.75;5017371;28;19925;-85
2023/11/17 08:29:19;;;;;;;;;;;;;;;3.31;100.00;100552.81;5022206;28;19928;-85
2023/11/17 08:31:54;;;;;;;;;;;;;;;3.37;100.00;100556.97;5023952;28;19960;-86
2023/11/17 08:34:22;;;;;;;;;;;;;;;3.37;100.00;100556.97;5032715;28;19925;-86
2023/11/17 08:36:52;;;;;;;;;;;;;;;3.36;100.00;100563.94;5052715;28;19936;-84
2023/11/17 08:39:26;;;;;;;;;;;;;;;3.50;100.00;100590.38;5045023;28;20467;-84
2023/11/17 08:41:55;;;;;;;;;;;;;;;3.47;100.00;100569.69;5013714;28;20372;-84
2023/11/17 08:44:23;;;;;;;;;;;;;;;3.50;100.00;100576.53;5042217;28;19925;-84
2023/11/17 08:46:51;;;;;;;;;;;;;;;3.49;100.00;100578.28;5024749;28;20020;-85
2023/11/17 08:49:19;;;;;;;;;;;;;;;3.54;100.00;100591.16;5025359;28;19932;-85
2023/11/17 08:51:49;;;;;;;;;;;;;;;3.57;100.00;100590.22;5075452;28;20020;-84
2023/11/17 08:54:31;;;;;;;;;;;;;;;3.54;100.00;100601.56;5096003;27;19934;-61
2023/11/17 08:56:58;;;;;;;;;;;;;;;3.48;100.00;100602.59;5088426;28;19928;-62
2023/11/17 08:59:25;;;;;;;;;;;;;;;3.52;100.00;100604.22;5077816;28;19971;-65
2023/11/17 09:01:52;;;;;;;;;;;;;;;3.49;100.00;100612.09;5079982;28;20437;-64
2023/11/17 09:04:20;;;;;;;;;;;;;;;3.47;100.00;100607.88;5079909;28;19975;-63
2023/11/17 09:06:47;;;;;;;;;;;;;;;3.47;100.00;100618.28;5088752;28;20390;-63
2023/11/17 09:09:14;;;;;;;;;;;;;;;3.54;100.00;100612.81;5089290;28;20018;-64
2023/11/17 09:11:58;;;;;;;;;;;;;;;3.66;100.00;100622.03;5088040;28;20460;-65
2023/11/17 09:14:26;;;;;;;;;;;;;;;3.57;100.00;100616.25;5084021;28;19967;-66
2023/11/17 09:17:01;;;;;;;;;;;;;;;3.58;100.00;100624.00;5078415;28;19956;-66
2023/11/17 09:19:28;;;;;;;;;;;;;;;3.61;100.00;100620.47;5082037;28;20004;-63
2023/11/17 09:21:55;;;;;;;;;;;;;;;3.61;100.00;100628.28;5083591;28;19931;-63
2023/11/17 09:24:22;;;;;;;;;;;;;;;3.59;100.00;100622.25;5082366;28;20393;-63
2023/11/17 09:26:49;;;;;;;;;;;;;;;3.76;100.00;100630.41;5073898;28;19932;-61
2023/11/17 09:29:17;;;;;;;;;;;;;;;3.84;100.00;100632.78;5083729;28;20355;-64
2023/11/17 09:31:44;;;;;;;;;;;;;;;3.84;100.00;100637.97;5087422;28;19977;-60
2023/11/17 09:34:11;;;;;;;;;;;;;;;3.70;100.00;100633.19;5086901;28;19994;-63
2023/11/17 09:36:40;;;;;;;;;;;;;;;3.70;100.00;100634.03;5087941;28;19967;-62
2023/11/17 09:39:09;;;;;;;;;;;;;;;3.54;100.00;100638.84;5085875;28;20026;-62
2023/11/17 09:41:39;;;;;;;;;;;;;;;3.65;100.00;100632.47;5083918;28;19931;-64
2023/11/17 09:44:06;;;;;;;;;;;;;;;3.68;100.00;100635.81;5078484;28;19926;-63
2023/11/17 09:46:39;;;;;;;;;;;;;;;3.72;100.00;100642.66;5087269;28;19955;-63
2023/11/17 09:49:07;;;;;;;;;;;;;;;3.80;100.00;100630.25;5074665;28;19978;-61
2023/11/17 09:51:35;;;;;;;;;;;;;;;3.81;100.00;100644.13;5081371;28;20005;-63
2023/11/17 09:54:04;;;;;;;;;;;;;;;3.78;100.00;100639.00;5078960;28;19970;-63
2023/11/17 09:56:31;;;;;;;;;;;;;;;3.87;100.00;100645.69;5077560;28;19933;-62
2023/11/17 09:58:58;;;;;;;;;;;;;;;3.76;100.00;100644.25;5083874;28;19964;-63
2023/11/17 10:01:27;;;;;;;;;;;;;;;3.80;100.00;100652.84;5076227;28;19924;-65
2023/11/17 10:03:58;;;;;;;;;;;;;;;3.79;100.00;100654.59;5092896;28;20588;-63
2023/11/17 10:06:26;;;;;;;;;;;;;;;3.83;100.00;100657.97;5077419;28;20421;-61
2023/11/17 10:08:53;;;;;;;;;;;;;;;3.92;100.00;100652.47;5071851;28;19956;-65
2023/11/17 10:11:20;;;;;;;;;;;;;;;3.86;100.00;100655.25;5071272;28;20438;-63
2023/11/17 10:13:48;;;;;;;;;;;;;;;3.93;100.00;100653.31;5073223;28;19928;-62
2023/11/17 10:16:16;;;;;;;;;;;;;;;3.90;100.00;100658.63;5062071;28;20006;-65
2023/11/17 10:18:43;;;;;;;;;;;;;;;3.92;100.00;100656.84;5076216;28;19932;-63
2023/11/17 10:21:10;;;;;;;;;;;;;;;3.84;100.00;100666.63;5072083;28;19997;-61
2023/11/17 10:23:38;;;;;;;;;;;;;;;3.92;100.00;100657.69;5063834;28;20031;-62
2023/11/17 10:26:07;;;;;;;;;;;;;;;3.89;100.00;100662.13;5067066;28;19925;-64
2023/11/17 10:28:36;;;;;;;;;;;;;;;3.88;100.00;100669.09;5075304;28;19971;-62
2023/11/17 10:31:05;;;;;;;;;;;;;;;4.00;100.00;100667.84;5073919;28;19924;-63
2023/11/17 10:33:33;;;;;;;;;;;;;;;3.89;100.00;100657.75;5075904;28;19976;-62
2023/11/17 10:36:04;;;;;;;;;;;;;;;3.97;100.00;100678.38;5067082;28;19967;-63
2023/11/17 10:38:34;;;;;;;;;;;;;;;4.00;100.00;100663.47;5082283;28;19950;-63
2023/11/17 10:41:26;;;;;;;;;;;;;;;3.90;100.00;100669.03;5068850;28;20007;-64
2023/11/17 10:43:54;;;;;;;;;;;;;;;4.07;100.00;100678.03;5066951;28;19950;-64
2023/11/17 10:46:21;;;;;;;;;;;;;;;4.10;100.00;100663.19;5069789;28;19924;-62
2023/11/17 10:48:52;;;;;;;;;;;;;;;4.18;100.00;100662.03;5069068;28;19925;-62
2023/11/17 10:51:21;;;;;;;;;;;;;;;4.13;100.00;100658.75;5068841;28;19925;-62
2023/11/17 10:54:04;;;;;;;;;;;;;;;4.13;100.00;100670.91;5070149;28;19924;-64
2023/11/17 10:56:32;;;;;;;;;;;;;;;4.19;100.00;100663.78;5067960;28;20007;-60
2023/11/17 10:59:00;;;;;;;;;;;;;;;4.15;100.00;100658.72;5067643;28;20007;-63
2023/11/17 11:01:31;;;;;;;;;;;;;;;4.22;100.00;100661.03;5069768;28;19924;-63
2023/11/17 11:04:00;;;;;;;;;;;;;;;4.19;100.00;100668.97;5052851;28;19924;-64
2023/11/17 11:06:28;;;;;;;;;;;;;;;4.14;100.00;100659.59;5067019;28;20373;-64
2023/11/17 11:08:55;;;;;;;;;;;;;;;4.15;100.00;100663.91;5053157;28;20298;-63
2023/11/17 11:11:28;;;;;;;;;;;;;;;4.30;100.00;100663.41;5055416;28;19967;-61
2023/11/17 11:14:02;;;;;;;;;;;;;;;4.31;100.00;100670.31;5066906;28;20101;-63
2023/11/17 11:16:35;;;;;;;;;;;;;;;4.28;100.00;100665.22;5065943;28;20435;-63
2023/11/17 11:19:02;;;;;;;;;;;;;;;4.34;100.00;100665.03;5056138;28;19974;-62
2023/11/17 11:21:33;;;;;;;;;;;;;;;4.36;100.00;100673.63;5072309;28;19970;-63
2023/11/17 11:24:01;;;;;;;;;;;;;;;4.35;100.00;100673.69;5070206;28;19936;-63
2023/11/17 11:26:29;;;;;;;;;;;;;;;4.41;100.00;100681.31;5068519;28;19956;-63
2023/11/17 11:28:57;;;;;;;;;;;;;;;4.39;100.00;100676.16;5071390;28;20303;-62
2023/11/17 11:31:25;;;;;;;;;;;;;;;4.37;100.00;100685.78;5080862;28;20249;-60
2023/11/17 11:33:53;;;;;;;;;;;;;;;4.38;100.00;100681.41;5067085;28;21589;-63
2023/11/17 11:36:20;;;;;;;;;;;;;;;4.24;100.00;100693.13;5065306;28;19964;-63
2023/11/17 11:38:47;;;;;;;;;;;;;;;4.39;100.00;100688.34;5064972;28;20469;-61
2023/11/17 11:41:22;;;;;;;;;;;;;;;4.38;100.00;100686.63;5070372;28;19970;-63
2023/11/17 11:43:52;;;;;;;;;;;;;;;4.37;100.00;100687.50;5063165;28;20393;-63
2023/11/17 11:46:20;;;;;;;;;;;;;;;4.50;100.00;100687.09;5063713;28;20056;-62
2023/11/17 11:48:49;;;;;;;;;;;;;;;4.53;100.00;100699.16;5068731;28;20026;-63
2023/11/17 11:51:17;;;;;;;;;;;;;;;4.39;100.00;100683.97;5066117;28;19986;-63
2023/11/17 11:53:47;;;;;;;;;;;;;;;4.40;100.00;100687.41;5081801;28;19992;-62
2023/11/17 11:56:14;;;;;;;;;;;;;;;4.42;100.00;100681.28;5058411;28;19985;-62
2023/11/17 11:58:42;;;;;;;;;;;;;;;4.58;100.00;100689.44;5067023;28;19956;-63
2023/11/17 12:01:19;;;;;;;;;;;;;;;4.55;100.00;100697.38;5066511;28;20011;-63
2023/11/17 12:03:50;;;;;;;;;;;;;;;4.71;100.00;100687.25;5068900;28;19967;-64
2023/11/17 12:06:21;;;;;;;;;;;;;;;4.61;100.00;100694.56;5066408;28;20436;-63
2023/11/17 12:08:54;;;;;;;;;;;;;;;4.51;100.00;100698.38;5070160;28;20905;-63
2023/11/17 12:11:22;;;;;;;;;;;;;;;4.57;100.00;100712.03;5072242;28;19968;-63
2023/11/17 12:13:55;;;;;;;;;;;;;;;4.51;100.00;100711.41;5069121;28;19978;-63
2023/11/17 12:16:28;;;;;;;;;;;;;;;4.55;100.00;100707.78;5065715;28;19967;-66
2023/11/17 12:18:57;;;;;;;;;;;;;;;4.55;100.00;100726.91;5067242;28;19929;-63
2023/11/17 12:21:27;;;;;;;;;;;;;;;4.48;100.00;100714.94;5065543;28;20199;-63
2023/11/17 12:23:55;;;;;;;;;;;;;;;4.54;100.00;100724.31;5069898;28;19932;-63
2023/11/17 12:26:24;;;;;;;;;;;;;;;4.41;100.00;100723.84;5069292;28;19932;-63
2023/11/17 12:28:51;;;;;;;;;;;;;;;4.48;100.00;100714.09;5055355;28;19925;-62
2023/11/17 12:31:19;;;;;;;;;;;;;;;4.51;100.00;100721.84;5051598;28;19979;-63
2023/11/17 12:33:51;;;;;;;;;;;;;;;4.52;100.00;100724.38;5068638;28;19924;-64
2023/11/17 12:36:18;;;;;;;;;;;;;;;4.55;100.00;100726.91;5069323;28;20027;-64
2023/11/17 12:38:53;;;;;;;;;;;;;;;4.46;100.00;100721.97;5067568;28;19938;-65
2023/11/17 12:41:21;;;;;;;;;;;;;;;4.41;100.00;100723.00;5068701;28;19963;-64
2023/11/17 12:43:54;;;;;;;;;;;;;;;4.50;100.00;100726.19;5068468;28;19932;-65
2023/11/17 12:46:23;;;;;;;;;;;;;;;4.55;100.00;100723.44;5066784;28;20028;-63